sensor_id;sensor_type;location;lat;lon;timestamp;P1;durP1;ratioP1;P2;durP2;ratioP2
66935;SDS011;53847;51.984;5.896;2022-08-19T00:01:28;2.60;;;2.40;;
66935;SDS011;53847;51.984;5.896;2022-08-19T00:03:56;2.30;;;2.10;;
66935;SDS011;53847;51.984;5.896;2022-08-19T00:06:27;2.92;;;2.72;;
66935;SDS011;53847;51.984;5.896;2022-08-19T00:08:55;3.20;;;2.50;;
66935;SDS011;53847;51.984;5.896;2022-08-19T00:11:23;2.78;;;2.58;;
66935;SDS011;53847;51.984;5.896;2022-08-19T00:13:49;3.08;;;2.78;;
66935;SDS011;53847;51.984;5.896;2022-08-19T00:16:16;2.53;;;2.33;;
66935;SDS011;53847;51.984;5.896;2022-08-19T00:18:43;2.20;;;2.10;;
66935;SDS011;53847;51.984;5.896;2022-08-19T00:21:09;3.08;;;2.88;;
66935;SDS011;53847;51.984;5.896;2022-08-19T00:23:35;3.03;;;2.83;;
66935;SDS011;53847;51.984;5.896;2022-08-19T00:26:03;3.53;;;3.22;;
66935;SDS011;53847;51.984;5.896;2022-08-19T00:28:30;3.40;;;3.10;;
66935;SDS011;53847;51.984;5.896;2022-08-19T00:30:57;2.90;;;2.67;;
66935;SDS011;53847;51.984;5.896;2022-08-19T00:33:24;3.10;;;2.80;;
66935;SDS011;53847;51.984;5.896;2022-08-19T00:35:51;3.67;;;3.38;;
66935;SDS011;53847;51.984;5.896;2022-08-19T00:38:17;2.72;;;2.53;;
66935;SDS011;53847;51.984;5.896;2022-08-19T00:40:43;2.92;;;2.72;;
66935;SDS011;53847;51.984;5.896;2022-08-19T00:43:10;4.00;;;3.63;;
66935;SDS011;53847;51.984;5.896;2022-08-19T00:45:37;3.97;;;3.30;;
66935;SDS011;53847;51.984;5.896;2022-08-19T00:48:03;3.75;;;3.45;;
66935;SDS011;53847;51.984;5.896;2022-08-19T00:50:29;4.22;;;3.92;;
66935;SDS011;53847;51.984;5.896;2022-08-19T00:52:56;2.95;;;2.75;;
66935;SDS011;53847;51.984;5.896;2022-08-19T00:55:23;2.72;;;2.53;;
66935;SDS011;53847;51.984;5.896;2022-08-19T00:57:52;4.22;;;3.83;;
66935;SDS011;53847;51.984;5.896;2022-08-19T01:00:23;3.83;;;3.53;;
66935;SDS011;53847;51.984;5.896;2022-08-19T01:02:51;4.53;;;4.10;;
66935;SDS011;53847;51.984;5.896;2022-08-19T01:05:25;3.97;;;3.60;;
66935;SDS011;53847;51.984;5.896;2022-08-19T01:07:53;3.60;;;3.30;;
66935;SDS011;53847;51.984;5.896;2022-08-19T01:10:23;3.60;;;3.30;;
66935;SDS011;53847;51.984;5.896;2022-08-19T01:12:52;3.75;;;3.45;;
66935;SDS011;53847;51.984;5.896;2022-08-19T01:15:21;3.83;;;3.53;;
66935;SDS011;53847;51.984;5.896;2022-08-19T01:17:50;4.90;;;4.50;;
66935;SDS011;53847;51.984;5.896;2022-08-19T01:20:20;4.50;;;4.10;;
66935;SDS011;53847;51.984;5.896;2022-08-19T01:22:55;4.40;;;4.10;;
66935;SDS011;53847;51.984;5.896;2022-08-19T01:25:24;3.97;;;3.67;;
66935;SDS011;53847;51.984;5.896;2022-08-19T01:27:54;4.63;;;4.22;;
66935;SDS011;53847;51.984;5.896;2022-08-19T01:30:22;5.18;;;4.72;;
66935;SDS011;53847;51.984;5.896;2022-08-19T01:32:52;4.70;;;4.18;;
66935;SDS011;53847;51.984;5.896;2022-08-19T01:35:19;5.43;;;4.93;;
66935;SDS011;53847;51.984;5.896;2022-08-19T01:40:25;7.93;;;4.60;;
66935;SDS011;53847;51.984;5.896;2022-08-19T01:42:54;4.28;;;3.90;;
66935;SDS011;53847;51.984;5.896;2022-08-19T01:45:21;5.57;;;4.97;;
66935;SDS011;53847;51.984;5.896;2022-08-19T01:47:49;5.10;;;4.70;;
66935;SDS011;53847;51.984;5.896;2022-08-19T01:50:16;5.55;;;5.07;;
66935;SDS011;53847;51.984;5.896;2022-08-19T01:52:42;4.60;;;4.20;;
66935;SDS011;53847;51.984;5.896;2022-08-19T01:55:13;5.20;;;4.80;;
66935;SDS011;53847;51.984;5.896;2022-08-19T01:57:42;5.45;;;4.95;;
66935;SDS011;53847;51.984;5.896;2022-08-19T02:00:16;5.43;;;4.95;;
66935;SDS011;53847;51.984;5.896;2022-08-19T02:02:46;6.22;;;5.72;;
66935;SDS011;53847;51.984;5.896;2022-08-19T02:05:12;5.43;;;4.93;;
66935;SDS011;53847;51.984;5.896;2022-08-19T02:07:39;5.45;;;4.95;;
66935;SDS011;53847;51.984;5.896;2022-08-19T02:10:07;5.18;;;4.68;;
66935;SDS011;53847;51.984;5.896;2022-08-19T02:12:35;5.38;;;4.80;;
66935;SDS011;53847;51.984;5.896;2022-08-19T02:15:01;5.57;;;4.90;;
66935;SDS011;53847;51.984;5.896;2022-08-19T02:17:28;5.65;;;5.15;;
66935;SDS011;53847;51.984;5.896;2022-08-19T02:19:55;5.82;;;5.25;;
66935;SDS011;53847;51.984;5.896;2022-08-19T02:22:22;5.90;;;5.40;;
66935;SDS011;53847;51.984;5.896;2022-08-19T02:24:49;4.68;;;4.28;;
66935;SDS011;53847;51.984;5.896;2022-08-19T02:27:15;5.97;;;5.38;;
66935;SDS011;53847;51.984;5.896;2022-08-19T02:29:41;5.88;;;5.38;;
66935;SDS011;53847;51.984;5.896;2022-08-19T02:32:08;5.90;;;5.30;;
66935;SDS011;53847;51.984;5.896;2022-08-19T02:34:34;5.88;;;5.38;;
66935;SDS011;53847;51.984;5.896;2022-08-19T02:37:00;5.55;;;4.50;;
66935;SDS011;53847;51.984;5.896;2022-08-19T02:39:26;4.68;;;4.28;;
66935;SDS011;53847;51.984;5.896;2022-08-19T02:41:52;4.80;;;4.40;;
66935;SDS011;53847;51.984;5.896;2022-08-19T02:44:18;6.40;;;4.72;;
66935;SDS011;53847;51.984;5.896;2022-08-19T02:46:45;4.75;;;4.35;;
66935;SDS011;53847;51.984;5.896;2022-08-19T02:49:13;5.03;;;4.60;;
66935;SDS011;53847;51.984;5.896;2022-08-19T02:51:41;5.18;;;4.78;;
66935;SDS011;53847;51.984;5.896;2022-08-19T02:54:09;6.18;;;5.57;;
66935;SDS011;53847;51.984;5.896;2022-08-19T02:56:37;5.68;;;5.18;;
66935;SDS011;53847;51.984;5.896;2022-08-19T02:59:05;5.00;;;4.60;;
66935;SDS011;53847;51.984;5.896;2022-08-19T03:01:32;5.32;;;4.93;;
66935;SDS011;53847;51.984;5.896;2022-08-19T03:03:59;4.15;;;3.85;;
66935;SDS011;53847;51.984;5.896;2022-08-19T03:06:27;5.63;;;4.43;;
66935;SDS011;53847;51.984;5.896;2022-08-19T03:08:54;5.85;;;5.30;;
66935;SDS011;53847;51.984;5.896;2022-08-19T03:11:25;5.93;;;5.43;;
66935;SDS011;53847;51.984;5.896;2022-08-19T03:16:23;6.53;;;5.80;;
66935;SDS011;53847;51.984;5.896;2022-08-19T03:18:50;5.43;;;4.93;;
66935;SDS011;53847;51.984;5.896;2022-08-19T03:21:18;5.68;;;5.20;;
66935;SDS011;53847;51.984;5.896;2022-08-19T03:23:49;5.70;;;5.20;;
66935;SDS011;53847;51.984;5.896;2022-08-19T03:26:18;5.60;;;5.10;;
66935;SDS011;53847;51.984;5.896;2022-08-19T03:28:45;4.95;;;4.55;;
66935;SDS011;53847;51.984;5.896;2022-08-19T03:31:12;5.63;;;5.18;;
66935;SDS011;53847;51.984;5.896;2022-08-19T03:33:39;5.28;;;4.88;;
66935;SDS011;53847;51.984;5.896;2022-08-19T03:38:38;4.97;;;4.57;;
66935;SDS011;53847;51.984;5.896;2022-08-19T03:41:29;5.15;;;4.75;;
66935;SDS011;53847;51.984;5.896;2022-08-19T03:43:57;5.43;;;4.97;;
66935;SDS011;53847;51.984;5.896;2022-08-19T03:46:28;4.60;;;4.20;;
66935;SDS011;53847;51.984;5.896;2022-08-19T03:48:57;3.50;;;3.20;;
66935;SDS011;53847;51.984;5.896;2022-08-19T03:51:28;4.40;;;4.05;;
66935;SDS011;53847;51.984;5.896;2022-08-19T03:53:56;5.78;;;5.28;;
66935;SDS011;53847;51.984;5.896;2022-08-19T03:56:24;6.68;;;6.07;;
66935;SDS011;53847;51.984;5.896;2022-08-19T03:58:50;6.05;;;5.55;;
66935;SDS011;53847;51.984;5.896;2022-08-19T04:01:19;5.53;;;5.07;;
66935;SDS011;53847;51.984;5.896;2022-08-19T04:03:46;6.07;;;5.57;;
66935;SDS011;53847;51.984;5.896;2022-08-19T04:06:14;5.07;;;4.68;;
66935;SDS011;53847;51.984;5.896;2022-08-19T04:08:45;5.32;;;4.78;;
66935;SDS011;53847;51.984;5.896;2022-08-19T04:11:13;5.75;;;5.28;;
66935;SDS011;53847;51.984;5.896;2022-08-19T04:13:42;5.07;;;4.68;;
66935;SDS011;53847;51.984;5.896;2022-08-19T04:16:08;5.28;;;4.88;;
66935;SDS011;53847;51.984;5.896;2022-08-19T04:18:35;5.22;;;4.82;;
66935;SDS011;53847;51.984;5.896;2022-08-19T04:21:03;5.43;;;5.03;;
66935;SDS011;53847;51.984;5.896;2022-08-19T04:23:30;6.70;;;6.18;;
66935;SDS011;53847;51.984;5.896;2022-08-19T04:25:57;5.78;;;5.30;;
66935;SDS011;53847;51.984;5.896;2022-08-19T04:28:23;6.10;;;5.60;;
66935;SDS011;53847;51.984;5.896;2022-08-19T04:30:50;6.00;;;5.50;;
66935;SDS011;53847;51.984;5.896;2022-08-19T04:33:20;6.60;;;6.00;;
66935;SDS011;53847;51.984;5.896;2022-08-19T04:35:49;6.65;;;6.15;;
66935;SDS011;53847;51.984;5.896;2022-08-19T04:38:17;7.57;;;6.97;;
66935;SDS011;53847;51.984;5.896;2022-08-19T04:40:46;6.85;;;6.25;;
66935;SDS011;53847;51.984;5.896;2022-08-19T04:43:14;4.93;;;4.53;;
66935;SDS011;53847;51.984;5.896;2022-08-19T04:45:40;4.70;;;4.30;;
66935;SDS011;53847;51.984;5.896;2022-08-19T04:48:07;4.82;;;4.43;;
66935;SDS011;53847;51.984;5.896;2022-08-19T04:50:34;6.20;;;5.72;;
66935;SDS011;53847;51.984;5.896;2022-08-19T04:53:01;7.35;;;6.50;;
66935;SDS011;53847;51.984;5.896;2022-08-19T04:55:27;6.70;;;6.13;;
66935;SDS011;53847;51.984;5.896;2022-08-19T04:57:56;6.15;;;5.65;;
66935;SDS011;53847;51.984;5.896;2022-08-19T05:00:22;6.45;;;5.95;;
66935;SDS011;53847;51.984;5.896;2022-08-19T05:02:49;6.30;;;5.70;;
66935;SDS011;53847;51.984;5.896;2022-08-19T05:05:15;5.15;;;4.75;;
66935;SDS011;53847;51.984;5.896;2022-08-19T05:07:41;4.60;;;4.20;;
66935;SDS011;53847;51.984;5.896;2022-08-19T05:10:07;3.85;;;3.55;;
66935;SDS011;53847;51.984;5.896;2022-08-19T05:12:34;4.60;;;4.25;;
66935;SDS011;53847;51.984;5.896;2022-08-19T05:15:03;4.55;;;4.15;;
66935;SDS011;53847;51.984;5.896;2022-08-19T05:17:30;4.22;;;3.92;;
66935;SDS011;53847;51.984;5.896;2022-08-19T05:19:57;4.72;;;4.35;;
66935;SDS011;53847;51.984;5.896;2022-08-19T05:22:23;5.03;;;4.63;;
66935;SDS011;53847;51.984;5.896;2022-08-19T05:24:49;6.63;;;6.13;;
66935;SDS011;53847;51.984;5.896;2022-08-19T05:27:15;6.78;;;6.07;;
66935;SDS011;53847;51.984;5.896;2022-08-19T05:29:41;7.07;;;6.47;;
66935;SDS011;53847;51.984;5.896;2022-08-19T05:32:07;6.60;;;6.00;;
66935;SDS011;53847;51.984;5.896;2022-08-19T05:34:33;6.85;;;6.35;;
66935;SDS011;53847;51.984;5.896;2022-08-19T05:37:01;7.25;;;6.65;;
66935;SDS011;53847;51.984;5.896;2022-08-19T05:39:28;7.07;;;6.47;;
66935;SDS011;53847;51.984;5.896;2022-08-19T05:41:58;8.60;;;7.78;;
66935;SDS011;53847;51.984;5.896;2022-08-19T05:44:27;8.77;;;7.95;;
66935;SDS011;53847;51.984;5.896;2022-08-19T05:46:55;7.13;;;6.53;;
66935;SDS011;53847;51.984;5.896;2022-08-19T05:49:22;8.18;;;7.47;;
66935;SDS011;53847;51.984;5.896;2022-08-19T05:51:48;8.70;;;8.00;;
66935;SDS011;53847;51.984;5.896;2022-08-19T05:54:15;9.25;;;8.50;;
66935;SDS011;53847;51.984;5.896;2022-08-19T05:56:41;7.90;;;7.22;;
66935;SDS011;53847;51.984;5.896;2022-08-19T05:59:08;8.48;;;7.78;;
66935;SDS011;53847;51.984;5.896;2022-08-19T06:01:36;8.43;;;7.57;;
66935;SDS011;53847;51.984;5.896;2022-08-19T06:04:04;7.97;;;7.28;;
66935;SDS011;53847;51.984;5.896;2022-08-19T06:06:30;8.27;;;7.57;;
66935;SDS011;53847;51.984;5.896;2022-08-19T06:08:56;8.80;;;8.10;;
66935;SDS011;53847;51.984;5.896;2022-08-19T06:13:50;8.25;;;7.55;;
66935;SDS011;53847;51.984;5.896;2022-08-19T06:16:19;7.35;;;6.75;;
66935;SDS011;53847;51.984;5.896;2022-08-19T06:18:46;7.30;;;6.70;;
66935;SDS011;53847;51.984;5.896;2022-08-19T06:21:12;8.52;;;7.82;;
66935;SDS011;53847;51.984;5.896;2022-08-19T06:23:38;6.65;;;6.15;;
66935;SDS011;53847;51.984;5.896;2022-08-19T06:26:04;8.60;;;7.90;;
66935;SDS011;53847;51.984;5.896;2022-08-19T06:28:30;7.90;;;7.30;;
66935;SDS011;53847;51.984;5.896;2022-08-19T06:30:56;7.85;;;7.15;;
66935;SDS011;53847;51.984;5.896;2022-08-19T06:33:22;8.23;;;7.53;;
66935;SDS011;53847;51.984;5.896;2022-08-19T06:35:49;7.95;;;6.82;;
66935;SDS011;53847;51.984;5.896;2022-08-19T06:38:15;7.32;;;6.72;;
66935;SDS011;53847;51.984;5.896;2022-08-19T06:40:41;8.48;;;7.78;;
66935;SDS011;53847;51.984;5.896;2022-08-19T06:43:07;9.32;;;8.43;;
66935;SDS011;53847;51.984;5.896;2022-08-19T06:45:33;9.73;;;8.75;;
66935;SDS011;53847;51.984;5.896;2022-08-19T06:47:59;10.25;;;9.27;;
66935;SDS011;53847;51.984;5.896;2022-08-19T06:50:25;12.32;;;11.27;;
66935;SDS011;53847;51.984;5.896;2022-08-19T06:52:51;12.10;;;11.00;;
66935;SDS011;53847;51.984;5.896;2022-08-19T06:55:17;11.10;;;10.10;;
66935;SDS011;53847;51.984;5.896;2022-08-19T06:57:43;13.40;;;12.10;;
66935;SDS011;53847;51.984;5.896;2022-08-19T07:00:09;11.65;;;10.48;;
66935;SDS011;53847;51.984;5.896;2022-08-19T07:02:35;12.63;;;11.43;;
66935;SDS011;53847;51.984;5.896;2022-08-19T07:05:02;17.75;;;15.88;;
66935;SDS011;53847;51.984;5.896;2022-08-19T07:07:28;21.90;;;19.00;;
66935;SDS011;53847;51.984;5.896;2022-08-19T07:09:54;21.17;;;18.83;;
66935;SDS011;53847;51.984;5.896;2022-08-19T07:12:20;34.25;;;28.25;;
66935;SDS011;53847;51.984;5.896;2022-08-19T07:14:46;38.30;;;28.05;;
66935;SDS011;53847;51.984;5.896;2022-08-19T07:17:12;32.45;;;26.67;;
66935;SDS011;53847;51.984;5.896;2022-08-19T07:19:38;34.22;;;26.40;;
66935;SDS011;53847;51.984;5.896;2022-08-19T07:22:08;24.63;;;21.40;;
66935;SDS011;53847;51.984;5.896;2022-08-19T07:24:35;37.75;;;30.95;;
66935;SDS011;53847;51.984;5.896;2022-08-19T07:27:03;33.10;;;26.73;;
66935;SDS011;53847;51.984;5.896;2022-08-19T07:29:31;29.02;;;24.80;;
66935;SDS011;53847;51.984;5.896;2022-08-19T07:31:59;35.38;;;30.45;;
66935;SDS011;53847;51.984;5.896;2022-08-19T07:34:27;37.40;;;30.23;;
66935;SDS011;53847;51.984;5.896;2022-08-19T07:36:54;33.38;;;28.52;;
66935;SDS011;53847;51.984;5.896;2022-08-19T07:39:25;28.52;;;24.52;;
66935;SDS011;53847;51.984;5.896;2022-08-19T07:41:54;26.70;;;23.08;;
66935;SDS011;53847;51.984;5.896;2022-08-19T07:44:21;30.73;;;27.35;;
66935;SDS011;53847;51.984;5.896;2022-08-19T07:46:48;30.67;;;27.20;;
66935;SDS011;53847;51.984;5.896;2022-08-19T07:49:16;32.97;;;28.63;;
66935;SDS011;53847;51.984;5.896;2022-08-19T07:51:44;35.00;;;29.90;;
66935;SDS011;53847;51.984;5.896;2022-08-19T07:54:11;31.88;;;26.67;;
66935;SDS011;53847;51.984;5.896;2022-08-19T07:56:37;34.67;;;30.95;;
66935;SDS011;53847;51.984;5.896;2022-08-19T07:59:03;30.90;;;27.55;;
66935;SDS011;53847;51.984;5.896;2022-08-19T08:01:30;30.35;;;27.05;;
66935;SDS011;53847;51.984;5.896;2022-08-19T08:03:56;32.47;;;28.30;;
66935;SDS011;53847;51.984;5.896;2022-08-19T08:06:23;27.20;;;24.20;;
66935;SDS011;53847;51.984;5.896;2022-08-19T08:08:50;33.20;;;29.00;;
66935;SDS011;53847;51.984;5.896;2022-08-19T08:11:19;31.88;;;28.48;;
66935;SDS011;53847;51.984;5.896;2022-08-19T08:13:46;32.90;;;27.77;;
66935;SDS011;53847;51.984;5.896;2022-08-19T08:16:12;32.15;;;28.73;;
66935;SDS011;53847;51.984;5.896;2022-08-19T08:18:39;31.63;;;28.33;;
66935;SDS011;53847;51.984;5.896;2022-08-19T08:21:05;33.50;;;30.27;;
66935;SDS011;53847;51.984;5.896;2022-08-19T08:23:31;27.75;;;24.95;;
66935;SDS011;53847;51.984;5.896;2022-08-19T08:26:03;33.42;;;30.20;;
66935;SDS011;53847;51.984;5.896;2022-08-19T08:28:29;33.83;;;30.45;;
66935;SDS011;53847;51.984;5.896;2022-08-19T08:30:56;28.67;;;25.83;;
66935;SDS011;53847;51.984;5.896;2022-08-19T08:33:24;28.48;;;25.67;;
66935;SDS011;53847;51.984;5.896;2022-08-19T08:35:52;26.42;;;23.77;;
66935;SDS011;53847;51.984;5.896;2022-08-19T08:38:18;33.75;;;30.15;;
66935;SDS011;53847;51.984;5.896;2022-08-19T08:40:47;31.25;;;27.98;;
66935;SDS011;53847;51.984;5.896;2022-08-19T08:43:29;27.40;;;24.48;;
66935;SDS011;53847;51.984;5.896;2022-08-19T08:51:11;23.23;;;20.92;;
66935;SDS011;53847;51.984;5.896;2022-08-19T08:53:41;27.88;;;24.98;;
66935;SDS011;53847;51.984;5.896;2022-08-19T08:56:10;23.77;;;21.30;;
66935;SDS011;53847;51.984;5.896;2022-08-19T09:01:13;23.83;;;21.42;;
66935;SDS011;53847;51.984;5.896;2022-08-19T09:03:40;25.10;;;22.50;;
66935;SDS011;53847;51.984;5.896;2022-08-19T09:06:13;23.58;;;21.15;;
66935;SDS011;53847;51.984;5.896;2022-08-19T09:09:02;25.48;;;22.75;;
66935;SDS011;53847;51.984;5.896;2022-08-19T09:16:56;22.98;;;20.60;;
66935;SDS011;53847;51.984;5.896;2022-08-19T09:19:23;22.05;;;19.83;;
66935;SDS011;53847;51.984;5.896;2022-08-19T09:21:49;19.88;;;17.88;;
66935;SDS011;53847;51.984;5.896;2022-08-19T09:24:15;21.83;;;19.55;;
66935;SDS011;53847;51.984;5.896;2022-08-19T09:26:41;23.27;;;20.45;;
66935;SDS011;53847;51.984;5.896;2022-08-19T09:29:11;20.63;;;18.48;;
66935;SDS011;53847;51.984;5.896;2022-08-19T09:31:37;20.33;;;18.23;;
66935;SDS011;53847;51.984;5.896;2022-08-19T09:34:03;22.70;;;20.33;;
66935;SDS011;53847;51.984;5.896;2022-08-19T09:36:33;23.52;;;20.05;;
66935;SDS011;53847;51.984;5.896;2022-08-19T09:38:59;27.08;;;24.15;;
66935;SDS011;53847;51.984;5.896;2022-08-19T09:41:25;22.23;;;19.85;;
66935;SDS011;53847;51.984;5.896;2022-08-19T09:43:53;22.75;;;20.45;;
66935;SDS011;53847;51.984;5.896;2022-08-19T09:46:20;21.25;;;19.08;;
66935;SDS011;53847;51.984;5.896;2022-08-19T09:48:47;21.88;;;19.38;;
66935;SDS011;53847;51.984;5.896;2022-08-19T09:51:16;21.15;;;18.85;;
66935;SDS011;53847;51.984;5.896;2022-08-19T09:53:44;20.27;;;18.25;;
66935;SDS011;53847;51.984;5.896;2022-08-19T09:56:11;21.73;;;17.55;;
66935;SDS011;53847;51.984;5.896;2022-08-19T09:58:39;21.38;;;19.02;;
66935;SDS011;53847;51.984;5.896;2022-08-19T10:01:07;18.65;;;16.33;;
66935;SDS011;53847;51.984;5.896;2022-08-19T10:03:34;18.95;;;15.75;;
66935;SDS011;53847;51.984;5.896;2022-08-19T10:06:07;19.45;;;17.45;;
66935;SDS011;53847;51.984;5.896;2022-08-19T10:08:49;20.88;;;18.00;;
66935;SDS011;53847;51.984;5.896;2022-08-19T10:11:17;17.70;;;15.90;;
66935;SDS011;53847;51.984;5.896;2022-08-19T10:13:55;18.95;;;17.05;;
66935;SDS011;53847;51.984;5.896;2022-08-19T10:16:35;18.15;;;15.88;;
66935;SDS011;53847;51.984;5.896;2022-08-19T10:19:07;18.52;;;16.45;;
66935;SDS011;53847;51.984;5.896;2022-08-19T10:21:36;18.77;;;15.18;;
66935;SDS011;53847;51.984;5.896;2022-08-19T10:24:05;18.67;;;16.17;;
66935;SDS011;53847;51.984;5.896;2022-08-19T10:26:33;19.33;;;16.65;;
66935;SDS011;53847;51.984;5.896;2022-08-19T10:31:49;16.60;;;14.82;;
66935;SDS011;53847;51.984;5.896;2022-08-19T10:34:20;17.67;;;15.77;;
66935;SDS011;53847;51.984;5.896;2022-08-19T10:36:46;19.02;;;16.00;;
66935;SDS011;53847;51.984;5.896;2022-08-19T10:39:13;14.27;;;12.77;;
66935;SDS011;53847;51.984;5.896;2022-08-19T10:41:42;18.52;;;16.40;;
66935;SDS011;53847;51.984;5.896;2022-08-19T10:44:09;21.13;;;16.98;;
66935;SDS011;53847;51.984;5.896;2022-08-19T10:46:40;18.67;;;16.63;;
66935;SDS011;53847;51.984;5.896;2022-08-19T10:49:09;18.95;;;16.92;;
66935;SDS011;53847;51.984;5.896;2022-08-19T10:51:37;17.98;;;16.02;;
66935;SDS011;53847;51.984;5.896;2022-08-19T10:54:05;18.98;;;15.30;;
66935;SDS011;53847;51.984;5.896;2022-08-19T10:56:31;18.65;;;15.15;;
66935;SDS011;53847;51.984;5.896;2022-08-19T10:59:02;16.92;;;15.10;;
66935;SDS011;53847;51.984;5.896;2022-08-19T11:01:30;16.40;;;14.35;;
66935;SDS011;53847;51.984;5.896;2022-08-19T11:03:56;13.85;;;12.45;;
66935;SDS011;53847;51.984;5.896;2022-08-19T11:06:23;18.50;;;16.55;;
66935;SDS011;53847;51.984;5.896;2022-08-19T11:08:49;19.75;;;15.73;;
66935;SDS011;53847;51.984;5.896;2022-08-19T11:11:15;16.17;;;14.02;;
66935;SDS011;53847;51.984;5.896;2022-08-19T11:13:42;17.17;;;15.38;;
66935;SDS011;53847;51.984;5.896;2022-08-19T11:16:09;15.73;;;14.13;;
66935;SDS011;53847;51.984;5.896;2022-08-19T11:18:38;16.30;;;14.60;;
66935;SDS011;53847;51.984;5.896;2022-08-19T11:21:08;17.27;;;15.43;;
66935;SDS011;53847;51.984;5.896;2022-08-19T11:23:39;16.05;;;14.15;;
66935;SDS011;53847;51.984;5.896;2022-08-19T11:26:08;15.02;;;13.50;;
66935;SDS011;53847;51.984;5.896;2022-08-19T11:28:35;13.75;;;12.20;;
66935;SDS011;53847;51.984;5.896;2022-08-19T11:31:01;14.70;;;13.07;;
66935;SDS011;53847;51.984;5.896;2022-08-19T11:33:29;13.60;;;12.15;;
66935;SDS011;53847;51.984;5.896;2022-08-19T11:35:59;13.63;;;12.23;;
66935;SDS011;53847;51.984;5.896;2022-08-19T11:38:25;11.85;;;10.68;;
66935;SDS011;53847;51.984;5.896;2022-08-19T11:40:58;14.00;;;12.50;;
66935;SDS011;53847;51.984;5.896;2022-08-19T11:43:25;16.17;;;13.32;;
66935;SDS011;53847;51.984;5.896;2022-08-19T11:45:52;11.65;;;10.50;;
66935;SDS011;53847;51.984;5.896;2022-08-19T11:48:19;14.45;;;11.95;;
66935;SDS011;53847;51.984;5.896;2022-08-19T11:50:45;11.13;;;9.88;;
66935;SDS011;53847;51.984;5.896;2022-08-19T11:53:11;12.15;;;10.85;;
66935;SDS011;53847;51.984;5.896;2022-08-19T11:55:40;12.50;;;11.30;;
66935;SDS011;53847;51.984;5.896;2022-08-19T11:58:06;12.75;;;11.38;;
66935;SDS011;53847;51.984;5.896;2022-08-19T12:00:32;11.68;;;10.30;;
66935;SDS011;53847;51.984;5.896;2022-08-19T12:02:59;13.00;;;11.70;;
66935;SDS011;53847;51.984;5.896;2022-08-19T12:05:25;13.70;;;11.70;;
66935;SDS011;53847;51.984;5.896;2022-08-19T12:07:51;11.93;;;10.73;;
66935;SDS011;53847;51.984;5.896;2022-08-19T12:10:17;12.95;;;10.43;;
66935;SDS011;53847;51.984;5.896;2022-08-19T12:12:43;10.63;;;9.52;;
66935;SDS011;53847;51.984;5.896;2022-08-19T12:15:09;8.60;;;7.80;;
66935;SDS011;53847;51.984;5.896;2022-08-19T12:17:36;12.60;;;10.98;;
66935;SDS011;53847;51.984;5.896;2022-08-19T12:20:02;12.77;;;11.57;;
66935;SDS011;53847;51.984;5.896;2022-08-19T12:22:30;13.00;;;11.65;;
66935;SDS011;53847;51.984;5.896;2022-08-19T12:24:56;12.73;;;11.52;;
66935;SDS011;53847;51.984;5.896;2022-08-19T12:27:24;12.55;;;11.10;;
66935;SDS011;53847;51.984;5.896;2022-08-19T12:29:50;13.48;;;12.20;;
66935;SDS011;53847;51.984;5.896;2022-08-19T12:32:16;11.48;;;10.30;;
66935;SDS011;53847;51.984;5.896;2022-08-19T12:34:42;12.07;;;10.88;;
66935;SDS011;53847;51.984;5.896;2022-08-19T12:37:08;11.45;;;10.27;;
66935;SDS011;53847;51.984;5.896;2022-08-19T12:39:39;12.57;;;11.38;;
66935;SDS011;53847;51.984;5.896;2022-08-19T12:42:07;12.55;;;11.35;;
66935;SDS011;53847;51.984;5.896;2022-08-19T12:44:34;12.00;;;10.80;;
66935;SDS011;53847;51.984;5.896;2022-08-19T12:47:01;14.70;;;13.25;;
66935;SDS011;53847;51.984;5.896;2022-08-19T12:49:30;14.35;;;12.95;;
66935;SDS011;53847;51.984;5.896;2022-08-19T12:51:57;14.00;;;12.60;;
66935;SDS011;53847;51.984;5.896;2022-08-19T12:54:23;12.20;;;10.90;;
66935;SDS011;53847;51.984;5.896;2022-08-19T12:56:49;11.65;;;10.55;;
66935;SDS011;53847;51.984;5.896;2022-08-19T12:59:15;11.85;;;10.70;;
66935;SDS011;53847;51.984;5.896;2022-08-19T13:01:42;12.50;;;11.30;;
66935;SDS011;53847;51.984;5.896;2022-08-19T13:04:09;13.00;;;11.80;;
66935;SDS011;53847;51.984;5.896;2022-08-19T13:06:35;12.25;;;11.00;;
66935;SDS011;53847;51.984;5.896;2022-08-19T13:09:02;13.00;;;11.70;;
66935;SDS011;53847;51.984;5.896;2022-08-19T13:11:29;12.60;;;11.43;;
66935;SDS011;53847;51.984;5.896;2022-08-19T13:13:56;12.23;;;11.07;;
66935;SDS011;53847;51.984;5.896;2022-08-19T13:16:22;13.30;;;12.13;;
66935;SDS011;53847;51.984;5.896;2022-08-19T13:18:48;14.50;;;13.05;;
66935;SDS011;53847;51.984;5.896;2022-08-19T13:21:15;14.25;;;12.80;;
66935;SDS011;53847;51.984;5.896;2022-08-19T13:23:41;12.77;;;11.48;;
66935;SDS011;53847;51.984;5.896;2022-08-19T13:26:08;11.93;;;10.63;;
66935;SDS011;53847;51.984;5.896;2022-08-19T13:28:35;10.13;;;9.23;;
66935;SDS011;53847;51.984;5.896;2022-08-19T13:31:01;12.52;;;11.13;;
66935;SDS011;53847;51.984;5.896;2022-08-19T13:33:27;10.85;;;9.90;;
66935;SDS011;53847;51.984;5.896;2022-08-19T13:35:56;11.23;;;10.13;;
66935;SDS011;53847;51.984;5.896;2022-08-19T13:38:24;13.02;;;11.82;;
66935;SDS011;53847;51.984;5.896;2022-08-19T13:40:51;11.68;;;10.57;;
66935;SDS011;53847;51.984;5.896;2022-08-19T13:43:19;12.45;;;11.15;;
66935;SDS011;53847;51.984;5.896;2022-08-19T13:45:46;10.50;;;9.50;;
66935;SDS011;53847;51.984;5.896;2022-08-19T13:48:12;12.45;;;11.35;;
66935;SDS011;53847;51.984;5.896;2022-08-19T13:50:39;12.07;;;10.95;;
66935;SDS011;53847;51.984;5.896;2022-08-19T13:53:08;12.50;;;9.85;;
66935;SDS011;53847;51.984;5.896;2022-08-19T13:55:39;11.32;;;10.32;;
66935;SDS011;53847;51.984;5.896;2022-08-19T13:58:06;9.93;;;9.02;;
66935;SDS011;53847;51.984;5.896;2022-08-19T14:00:35;11.38;;;9.93;;
66935;SDS011;53847;51.984;5.896;2022-08-19T14:03:03;9.48;;;8.48;;
66935;SDS011;53847;51.984;5.896;2022-08-19T14:05:37;12.75;;;11.52;;
66935;SDS011;53847;51.984;5.896;2022-08-19T14:10:37;12.55;;;11.40;;
66935;SDS011;53847;51.984;5.896;2022-08-19T14:13:03;12.57;;;11.38;;
66935;SDS011;53847;51.984;5.896;2022-08-19T14:15:30;15.48;;;13.68;;
66935;SDS011;53847;51.984;5.896;2022-08-19T14:17:56;11.02;;;10.13;;
66935;SDS011;53847;51.984;5.896;2022-08-19T14:20:23;12.35;;;11.15;;
66935;SDS011;53847;51.984;5.896;2022-08-19T14:22:49;12.93;;;11.77;;
66935;SDS011;53847;51.984;5.896;2022-08-19T14:25:17;11.00;;;10.00;;
66935;SDS011;53847;51.984;5.896;2022-08-19T14:27:45;11.10;;;9.98;;
66935;SDS011;53847;51.984;5.896;2022-08-19T14:30:13;12.32;;;11.13;;
66935;SDS011;53847;51.984;5.896;2022-08-19T14:32:41;12.55;;;11.25;;
66935;SDS011;53847;51.984;5.896;2022-08-19T14:35:07;13.15;;;11.88;;
66935;SDS011;53847;51.984;5.896;2022-08-19T14:37:34;9.95;;;8.93;;
66935;SDS011;53847;51.984;5.896;2022-08-19T14:40:02;14.20;;;12.80;;
66935;SDS011;53847;51.984;5.896;2022-08-19T14:42:29;12.15;;;10.98;;
66935;SDS011;53847;51.984;5.896;2022-08-19T14:44:58;10.38;;;9.38;;
66935;SDS011;53847;51.984;5.896;2022-08-19T14:47:25;11.32;;;10.23;;
66935;SDS011;53847;51.984;5.896;2022-08-19T14:49:52;13.32;;;12.02;;
66935;SDS011;53847;51.984;5.896;2022-08-19T14:52:18;13.48;;;12.07;;
66935;SDS011;53847;51.984;5.896;2022-08-19T14:54:46;11.50;;;10.35;;
66935;SDS011;53847;51.984;5.896;2022-08-19T14:57:12;11.70;;;9.95;;
66935;SDS011;53847;51.984;5.896;2022-08-19T14:59:39;9.65;;;8.52;;
66935;SDS011;53847;51.984;5.896;2022-08-19T15:02:06;8.30;;;7.47;;
66935;SDS011;53847;51.984;5.896;2022-08-19T15:04:34;8.05;;;7.25;;